Wetterdaten: Donnerstag, 11.06.2015
Datum Zeit Temp. A. Feuchte A. Luftdruck Regen Wind Richtung Richtung Sonnenschein ET UV Solar Taupunkt Windchill Windben Empfang
11.06.2015 00:00 15,1 C 89 % 1020,2 hPa 0,0 l/m 0,0 km/h (0 Bft) S-SO 150 0 min 0,000 mm 0,0 UV-I 0 W/m 13,3 C 15,1 C 0,0 km/h (0 Bft) 0,00 %
11.06.2015 01:00 15,6 C 80 % 1019,5 hPa 0,0 l/m 0,3 km/h (0 Bft) NO 50 0 min 0,000 mm 0,0 UV-I 0 W/m 12,2 C 15,6 C 4,0 km/h (1 Bft) 0,00 %
11.06.2015 02:00 15,3 C 80 % 1019,9 hPa 0,0 l/m 1,4 km/h (1 Bft) SO 140 0 min 0,000 mm 0,0 UV-I 0 W/m 11,9 C 15,3 C 4,0 km/h (1 Bft) 0,00 %
11.06.2015 03:00 15,1 C 81 % 1019,2 hPa 0,0 l/m 1,8 km/h (1 Bft) SO 130 0 min 0,000 mm 0,0 UV-I 0 W/m 11,9 C 15,1 C 4,0 km/h (1 Bft) 0,00 %
11.06.2015 04:00 14,7 C 80 % 1019,3 hPa 0,0 l/m 1,4 km/h (1 Bft) SO 130 0 min 0,000 mm 0,0 UV-I 0 W/m 11,3 C 14,7 C 4,0 km/h (1 Bft) 0,00 %
11.06.2015 05:00 14,2 C 80 % 1019,3 hPa 0,0 l/m 6,4 km/h (2 Bft) O 90 0 min 0,000 mm 0,0 UV-I 0 W/m 10,8 C 14,2 C 7,9 km/h (2 Bft) 0,00 %
11.06.2015 06:00 14,2 C 78 % 1019,3 hPa 0,0 l/m 1,4 km/h (1 Bft) SO 132 0 min 0,000 mm 0,0 UV-I 25 W/m 10,4 C 14,2 C 4,0 km/h (1 Bft) 0,00 %
11.06.2015 07:00 15,2 C 70 % 1018,5 hPa 0,0 l/m 10,5 km/h (2 Bft) S-SO 150 60 min 0,000 mm 1,0 UV-I 267 W/m 9,8 C 13,1 C 11,9 km/h (2 Bft) 0,00 %
11.06.2015 08:00 15,4 C 71 % 1018,8 hPa 0,0 l/m 8,2 km/h (2 Bft) O 90 60 min 0,000 mm 1,0 UV-I 248 W/m 10,2 C 14,4 C 11,9 km/h (2 Bft) 0,00 %
11.06.2015 09:00 17,2 C 66 % 1018,9 hPa 0,0 l/m 7,9 km/h (2 Bft) SO 140 60 min 0,000 mm 2,0 UV-I 544 W/m 10,8 C 16,5 C 7,9 km/h (2 Bft) 0,00 %
11.06.2015 10:00 18,0 C 63 % 1018,8 hPa 0,0 l/m 1,8 km/h (1 Bft) O 90 60 min 0,000 mm 3,0 UV-I 627 W/m 10,8 C 18,0 C 4,0 km/h (1 Bft) 0,00 %
11.06.2015 11:00 19,8 C 60 % 1017,8 hPa 0,0 l/m 7,2 km/h (2 Bft) SO 130 60 min 0,000 mm 4,0 UV-I 778 W/m 11,8 C 19,5 C 15,8 km/h (3 Bft) 0,00 %
11.06.2015 12:00 21,1 C 54 % 1017,2 hPa 0,0 l/m 9,7 km/h (2 Bft) O 90 60 min 0,000 mm 5,0 UV-I 755 W/m 11,4 C 19,9 C 15,8 km/h (3 Bft) 0,00 %
11.06.2015 13:00 20,9 C 59 % 1016,5 hPa 0,0 l/m 6,4 km/h (2 Bft) O 90 60 min 0,000 mm 4,0 UV-I 613 W/m 12,6 C 20,9 C 11,9 km/h (2 Bft) 0,00 %
11.06.2015 14:00 22,3 C 55 % 1015,6 hPa 0,0 l/m 0,0 km/h (0 Bft) SO 130 60 min 0,000 mm 3,0 UV-I 520 W/m 12,8 C 22,3 C 0,0 km/h (0 Bft) 0,00 %
11.06.2015 15:00 24,3 C 49 % 1014,7 hPa 0,0 l/m 0,3 km/h (0 Bft) S 180 60 min 0,000 mm 4,0 UV-I 887 W/m 12,9 C 24,3 C 4,0 km/h (1 Bft) 0,00 %
11.06.2015 16:00 24,2 C 49 % 1014,0 hPa 0,0 l/m 2,1 km/h (1 Bft) O-NO 60 60 min 0,000 mm 4,0 UV-I 853 W/m 12,8 C 24,2 C 4,0 km/h (1 Bft) 0,00 %
11.06.2015 17:00 25,4 C 49 % 1013,5 hPa 0,0 l/m 2,1 km/h (1 Bft) SW 230 60 min 0,000 mm 2,0 UV-I 827 W/m 13,9 C 25,4 C 4,0 km/h (1 Bft) 0,00 %
11.06.2015 18:00 23,7 C 53 % 1013,3 hPa 0,0 l/m 0,6 km/h (0 Bft) NW 320 60 min 0,000 mm 1,0 UV-I 379 W/m 13,5 C 23,7 C 4,0 km/h (1 Bft) 0,00 %
11.06.2015 19:00 21,8 C 61 % 1013,3 hPa 0,0 l/m 0,0 km/h (0 Bft) N 359 0 min 0,000 mm 1,0 UV-I 101 W/m 13,9 C 21,8 C 0,0 km/h (0 Bft) 0,00 %
11.06.2015 20:00 20,9 C 64 % 1013,4 hPa 0,0 l/m 0,0 km/h (0 Bft) S-SO 150 0 min 0,000 mm 0,0 UV-I 33 W/m 13,8 C 20,9 C 0,0 km/h (0 Bft) 0,00 %
11.06.2015 21:00 20,0 C 73 % 1013,5 hPa 0,0 l/m 0,0 km/h (0 Bft) SO 140 0 min 0,000 mm 0,0 UV-I 0 W/m 15,0 C 20,0 C 0,0 km/h (0 Bft) 0,00 %
11.06.2015 22:00 18,9 C 80 % 1014,4 hPa 0,0 l/m 0,0 km/h (0 Bft) SO 140 0 min 0,000 mm 0,0 UV-I 0 W/m 15,4 C 18,9 C 0,0 km/h (0 Bft) 0,00 %
11.06.2015 23:00 18,4 C 83 % 1014,1 hPa 0,0 l/m 0,0 km/h (0 Bft) S 180 0 min 0,000 mm 0,0 UV-I 0 W/m 15,5 C 18,4 C 0,0 km/h (0 Bft) 0,00 %
_ Min-Zeit 05:00 15:00 18:00 - 00:00 - - - - - - 07:00 07:00 00:00 00:00
Minimum _ 14,2 C 49 % 1013,3 hPa - 0,0 km/h (0 Bft) - - - - - - 9,8 C 13,1 C 0,0 km/h (0 Bft) 0,00 %
_ Max-Zeit 17:00 00:00 00:00 00:00 07:00 - - 07:00 00:00 12:00 15:00 23:00 17:00 11:00 00:00
Maximum _ 25,4 C 89 % 1020,2 hPa 0,0 l/m 10,5 km/h
S-SO (2 Bft)
- - 60 min 0,000 mm 5,0 UV-I 887 W/m 15,5 C 25,4 C 15,8 km/h
SO (3 Bft)
0,00 %
Durchschnitt _ 19,0 C 67 % 1016,6 hPa #0,0 l/m 3,0 km/h (1 Bft) SO - #12:00 h #0,000 mm 2,7 UV-I 497 W/m 12,4 C 18,8 C 5,3 km/h (1 Bft) 0,00 %